sensor_id;sensor_type;location;lat;lon;timestamp;P1;durP1;ratioP1;P2;durP2;ratioP2
32748;SDS011;19119;52.474;13.710;2023-02-28T00:00:22;7.38;;;3.15;;
32748;SDS011;19119;52.474;13.710;2023-02-28T00:02:48;9.23;;;3.78;;
32748;SDS011;19119;52.474;13.710;2023-02-28T00:05:15;7.35;;;3.90;;
32748;SDS011;19119;52.474;13.710;2023-02-28T00:07:43;5.97;;;3.40;;
32748;SDS011;19119;52.474;13.710;2023-02-28T00:10:09;6.88;;;2.85;;
32748;SDS011;19119;52.474;13.710;2023-02-28T00:12:37;4.90;;;2.80;;
32748;SDS011;19119;52.474;13.710;2023-02-28T00:15:06;5.47;;;2.70;;
32748;SDS011;19119;52.474;13.710;2023-02-28T00:17:33;4.22;;;2.70;;
32748;SDS011;19119;52.474;13.710;2023-02-28T00:19:59;4.65;;;2.55;;
32748;SDS011;19119;52.474;13.710;2023-02-28T00:22:28;4.63;;;2.55;;
32748;SDS011;19119;52.474;13.710;2023-02-28T00:24:54;7.75;;;2.90;;
32748;SDS011;19119;52.474;13.710;2023-02-28T00:27:19;5.35;;;2.33;;
32748;SDS011;19119;52.474;13.710;2023-02-28T00:29:46;4.43;;;3.08;;
32748;SDS011;19119;52.474;13.710;2023-02-28T00:32:12;6.07;;;2.45;;
32748;SDS011;19119;52.474;13.710;2023-02-28T00:34:37;3.72;;;2.50;;
32748;SDS011;19119;52.474;13.710;2023-02-28T00:37:06;6.07;;;3.03;;
32748;SDS011;19119;52.474;13.710;2023-02-28T00:39:34;7.00;;;2.42;;
32748;SDS011;19119;52.474;13.710;2023-02-28T00:42:01;5.75;;;2.35;;
32748;SDS011;19119;52.474;13.710;2023-02-28T00:44:27;6.95;;;2.88;;
32748;SDS011;19119;52.474;13.710;2023-02-28T00:46:53;6.05;;;3.03;;
32748;SDS011;19119;52.474;13.710;2023-02-28T00:49:20;5.57;;;2.58;;
32748;SDS011;19119;52.474;13.710;2023-02-28T00:51:46;3.88;;;2.60;;
32748;SDS011;19119;52.474;13.710;2023-02-28T00:54:12;8.63;;;3.00;;
32748;SDS011;19119;52.474;13.710;2023-02-28T00:56:37;3.83;;;2.78;;
32748;SDS011;19119;52.474;13.710;2023-02-28T00:59:03;5.07;;;2.80;;
32748;SDS011;19119;52.474;13.710;2023-02-28T01:01:28;6.32;;;2.28;;
32748;SDS011;19119;52.474;13.710;2023-02-28T01:03:54;5.85;;;2.55;;
32748;SDS011;19119;52.474;13.710;2023-02-28T01:06:19;4.03;;;2.35;;
32748;SDS011;19119;52.474;13.710;2023-02-28T01:08:45;5.90;;;2.63;;
32748;SDS011;19119;52.474;13.710;2023-02-28T01:11:11;6.13;;;2.22;;
32748;SDS011;19119;52.474;13.710;2023-02-28T01:13:39;4.75;;;2.40;;
32748;SDS011;19119;52.474;13.710;2023-02-28T01:16:06;6.72;;;3.35;;
32748;SDS011;19119;52.474;13.710;2023-02-28T01:18:32;7.00;;;2.70;;
32748;SDS011;19119;52.474;13.710;2023-02-28T01:20:57;4.78;;;2.55;;
32748;SDS011;19119;52.474;13.710;2023-02-28T01:23:23;4.68;;;2.55;;
32748;SDS011;19119;52.474;13.710;2023-02-28T01:25:50;5.55;;;2.83;;
32748;SDS011;19119;52.474;13.710;2023-02-28T01:28:16;5.78;;;2.42;;
32748;SDS011;19119;52.474;13.710;2023-02-28T01:30:42;5.28;;;2.50;;
32748;SDS011;19119;52.474;13.710;2023-02-28T01:33:07;3.33;;;2.33;;
32748;SDS011;19119;52.474;13.710;2023-02-28T01:35:33;3.78;;;2.15;;
32748;SDS011;19119;52.474;13.710;2023-02-28T01:37:59;3.83;;;2.42;;
32748;SDS011;19119;52.474;13.710;2023-02-28T01:40:25;5.78;;;2.60;;
32748;SDS011;19119;52.474;13.710;2023-02-28T01:42:51;3.45;;;2.33;;
32748;SDS011;19119;52.474;13.710;2023-02-28T01:45:27;3.55;;;2.47;;
32748;SDS011;19119;52.474;13.710;2023-02-28T01:47:55;5.10;;;2.53;;
32748;SDS011;19119;52.474;13.710;2023-02-28T01:50:25;4.15;;;2.53;;
32748;SDS011;19119;52.474;13.710;2023-02-28T01:52:59;4.15;;;2.40;;
32748;SDS011;19119;52.474;13.710;2023-02-28T01:55:28;5.05;;;2.40;;
32748;SDS011;19119;52.474;13.710;2023-02-28T01:57:56;3.90;;;2.03;;
32748;SDS011;19119;52.474;13.710;2023-02-28T02:00:24;5.00;;;2.50;;
32748;SDS011;19119;52.474;13.710;2023-02-28T02:02:55;5.68;;;2.47;;
32748;SDS011;19119;52.474;13.710;2023-02-28T02:12:25;2.58;;;2.20;;
32748;SDS011;19119;52.474;13.710;2023-02-28T02:17:42;6.57;;;3.22;;
32748;SDS011;19119;52.474;13.710;2023-02-28T02:26:11;3.28;;;2.00;;
32748;SDS011;19119;52.474;13.710;2023-02-28T02:31:56;3.63;;;2.33;;
32748;SDS011;19119;52.474;13.710;2023-02-28T02:34:41;4.10;;;2.33;;
32748;SDS011;19119;52.474;13.710;2023-02-28T02:37:39;5.63;;;2.80;;
32748;SDS011;19119;52.474;13.710;2023-02-28T02:40:16;6.03;;;2.30;;
32748;SDS011;19119;52.474;13.710;2023-02-28T02:45:37;4.50;;;2.17;;
32748;SDS011;19119;52.474;13.710;2023-02-28T02:48:08;7.75;;;2.65;;
32748;SDS011;19119;52.474;13.710;2023-02-28T02:50:38;7.95;;;2.15;;
32748;SDS011;19119;52.474;13.710;2023-02-28T02:53:08;4.57;;;2.85;;
32748;SDS011;19119;52.474;13.710;2023-02-28T02:55:36;5.13;;;2.33;;
32748;SDS011;19119;52.474;13.710;2023-02-28T02:58:10;3.85;;;2.33;;
32748;SDS011;19119;52.474;13.710;2023-02-28T03:00:43;4.72;;;2.40;;
32748;SDS011;19119;52.474;13.710;2023-02-28T03:03:13;6.05;;;2.88;;
32748;SDS011;19119;52.474;13.710;2023-02-28T03:05:44;6.28;;;2.90;;
32748;SDS011;19119;52.474;13.710;2023-02-28T03:08:12;6.95;;;2.40;;
32748;SDS011;19119;52.474;13.710;2023-02-28T03:10:40;5.05;;;2.53;;
32748;SDS011;19119;52.474;13.710;2023-02-28T03:16:28;4.68;;;2.05;;
32748;SDS011;19119;52.474;13.710;2023-02-28T03:18:57;6.57;;;2.70;;
32748;SDS011;19119;52.474;13.710;2023-02-28T03:21:34;4.63;;;2.13;;
32748;SDS011;19119;52.474;13.710;2023-02-28T03:24:06;4.93;;;2.33;;
32748;SDS011;19119;52.474;13.710;2023-02-28T03:26:39;4.13;;;2.20;;
32748;SDS011;19119;52.474;13.710;2023-02-28T03:29:19;7.28;;;2.42;;
32748;SDS011;19119;52.474;13.710;2023-02-28T03:31:52;3.28;;;2.35;;
32748;SDS011;19119;52.474;13.710;2023-02-28T03:34:32;5.00;;;2.08;;
32748;SDS011;19119;52.474;13.710;2023-02-28T03:37:02;5.95;;;2.45;;
32748;SDS011;19119;52.474;13.710;2023-02-28T03:40:10;4.97;;;2.80;;
32748;SDS011;19119;52.474;13.710;2023-02-28T03:42:34;5.05;;;2.50;;
32748;SDS011;19119;52.474;13.710;2023-02-28T03:45:08;9.23;;;3.45;;
32748;SDS011;19119;52.474;13.710;2023-02-28T03:53:04;7.25;;;3.55;;
32748;SDS011;19119;52.474;13.710;2023-02-28T03:55:41;5.88;;;2.80;;
32748;SDS011;19119;52.474;13.710;2023-02-28T03:58:15;4.88;;;2.60;;
32748;SDS011;19119;52.474;13.710;2023-02-28T04:01:31;7.38;;;2.88;;
32748;SDS011;19119;52.474;13.710;2023-02-28T04:04:06;8.02;;;3.28;;
32748;SDS011;19119;52.474;13.710;2023-02-28T04:06:33;8.43;;;3.88;;
32748;SDS011;19119;52.474;13.710;2023-02-28T04:09:00;5.70;;;2.67;;
32748;SDS011;19119;52.474;13.710;2023-02-28T04:11:33;8.50;;;3.15;;
32748;SDS011;19119;52.474;13.710;2023-02-28T04:14:04;6.38;;;3.00;;
32748;SDS011;19119;52.474;13.710;2023-02-28T04:16:34;9.70;;;3.28;;
32748;SDS011;19119;52.474;13.710;2023-02-28T04:19:02;6.05;;;2.55;;
32748;SDS011;19119;52.474;13.710;2023-02-28T04:21:34;3.63;;;2.50;;
32748;SDS011;19119;52.474;13.710;2023-02-28T04:24:02;7.82;;;3.05;;
32748;SDS011;19119;52.474;13.710;2023-02-28T04:26:29;7.65;;;3.30;;
32748;SDS011;19119;52.474;13.710;2023-02-28T04:28:59;6.30;;;3.22;;
32748;SDS011;19119;52.474;13.710;2023-02-28T04:31:25;4.72;;;2.92;;
32748;SDS011;19119;52.474;13.710;2023-02-28T04:33:51;6.90;;;2.60;;
32748;SDS011;19119;52.474;13.710;2023-02-28T04:36:17;4.95;;;3.05;;
32748;SDS011;19119;52.474;13.710;2023-02-28T04:38:43;5.15;;;2.83;;
32748;SDS011;19119;52.474;13.710;2023-02-28T04:41:10;7.93;;;3.28;;
32748;SDS011;19119;52.474;13.710;2023-02-28T04:43:36;5.40;;;3.20;;
32748;SDS011;19119;52.474;13.710;2023-02-28T04:46:02;7.35;;;3.15;;
32748;SDS011;19119;52.474;13.710;2023-02-28T04:48:30;7.07;;;2.92;;
32748;SDS011;19119;52.474;13.710;2023-02-28T04:51:05;6.05;;;2.28;;
32748;SDS011;19119;52.474;13.710;2023-02-28T04:53:33;4.03;;;2.47;;
32748;SDS011;19119;52.474;13.710;2023-02-28T04:55:59;7.60;;;3.47;;
32748;SDS011;19119;52.474;13.710;2023-02-28T04:58:24;7.32;;;3.25;;
32748;SDS011;19119;52.474;13.710;2023-02-28T05:00:53;6.53;;;4.07;;
32748;SDS011;19119;52.474;13.710;2023-02-28T05:03:19;5.07;;;3.15;;
32748;SDS011;19119;52.474;13.710;2023-02-28T05:05:47;5.95;;;2.60;;
32748;SDS011;19119;52.474;13.710;2023-02-28T05:08:12;6.13;;;2.85;;
32748;SDS011;19119;52.474;13.710;2023-02-28T05:10:38;7.25;;;3.35;;
32748;SDS011;19119;52.474;13.710;2023-02-28T05:13:03;6.40;;;3.63;;
32748;SDS011;19119;52.474;13.710;2023-02-28T05:15:29;8.95;;;3.28;;
32748;SDS011;19119;52.474;13.710;2023-02-28T05:17:55;5.50;;;2.17;;
32748;SDS011;19119;52.474;13.710;2023-02-28T05:20:20;5.30;;;3.42;;
32748;SDS011;19119;52.474;13.710;2023-02-28T05:22:46;7.13;;;2.97;;
32748;SDS011;19119;52.474;13.710;2023-02-28T05:25:13;6.88;;;3.22;;
32748;SDS011;19119;52.474;13.710;2023-02-28T05:27:43;6.15;;;3.10;;
32748;SDS011;19119;52.474;13.710;2023-02-28T05:30:09;7.20;;;2.95;;
32748;SDS011;19119;52.474;13.710;2023-02-28T05:32:38;8.80;;;3.45;;
32748;SDS011;19119;52.474;13.710;2023-02-28T05:35:09;6.25;;;3.13;;
32748;SDS011;19119;52.474;13.710;2023-02-28T05:37:36;6.72;;;2.65;;
32748;SDS011;19119;52.474;13.710;2023-02-28T05:40:02;5.97;;;2.88;;
32748;SDS011;19119;52.474;13.710;2023-02-28T05:42:32;4.25;;;2.83;;
32748;SDS011;19119;52.474;13.710;2023-02-28T05:44:57;7.23;;;3.63;;
32748;SDS011;19119;52.474;13.710;2023-02-28T05:47:23;4.53;;;3.35;;
32748;SDS011;19119;52.474;13.710;2023-02-28T05:49:49;5.40;;;2.95;;
32748;SDS011;19119;52.474;13.710;2023-02-28T05:52:15;5.65;;;2.85;;
32748;SDS011;19119;52.474;13.710;2023-02-28T05:54:40;6.10;;;2.70;;
32748;SDS011;19119;52.474;13.710;2023-02-28T05:57:06;3.88;;;2.33;;
32748;SDS011;19119;52.474;13.710;2023-02-28T05:59:32;5.80;;;2.85;;
32748;SDS011;19119;52.474;13.710;2023-02-28T06:01:58;4.10;;;2.33;;
32748;SDS011;19119;52.474;13.710;2023-02-28T06:04:23;9.60;;;2.50;;
32748;SDS011;19119;52.474;13.710;2023-02-28T06:06:49;4.17;;;2.37;;
32748;SDS011;19119;52.474;13.710;2023-02-28T06:09:15;4.57;;;2.83;;
32748;SDS011;19119;52.474;13.710;2023-02-28T06:11:42;6.32;;;3.15;;
32748;SDS011;19119;52.474;13.710;2023-02-28T06:14:10;6.22;;;2.95;;
32748;SDS011;19119;52.474;13.710;2023-02-28T06:16:42;4.80;;;2.60;;
32748;SDS011;19119;52.474;13.710;2023-02-28T06:19:08;4.60;;;2.42;;
32748;SDS011;19119;52.474;13.710;2023-02-28T06:21:34;6.73;;;3.37;;
32748;SDS011;19119;52.474;13.710;2023-02-28T06:24:00;5.20;;;2.90;;
32748;SDS011;19119;52.474;13.710;2023-02-28T06:26:26;9.53;;;3.17;;
32748;SDS011;19119;52.474;13.710;2023-02-28T06:28:52;8.52;;;3.33;;
32748;SDS011;19119;52.474;13.710;2023-02-28T06:31:18;6.25;;;3.45;;
32748;SDS011;19119;52.474;13.710;2023-02-28T06:33:44;5.47;;;3.37;;
32748;SDS011;19119;52.474;13.710;2023-02-28T06:36:11;5.10;;;2.30;;
32748;SDS011;19119;52.474;13.710;2023-02-28T06:38:38;4.50;;;2.83;;
32748;SDS011;19119;52.474;13.710;2023-02-28T06:41:06;5.95;;;3.13;;
32748;SDS011;19119;52.474;13.710;2023-02-28T06:43:33;4.97;;;3.38;;
32748;SDS011;19119;52.474;13.710;2023-02-28T06:46:03;5.88;;;3.38;;
32748;SDS011;19119;52.474;13.710;2023-02-28T06:48:30;6.45;;;4.07;;
32748;SDS011;19119;52.474;13.710;2023-02-28T06:51:02;8.93;;;3.60;;
32748;SDS011;19119;52.474;13.710;2023-02-28T06:53:30;6.22;;;3.25;;
32748;SDS011;19119;52.474;13.710;2023-02-28T06:55:55;6.00;;;3.63;;
32748;SDS011;19119;52.474;13.710;2023-02-28T06:58:21;5.00;;;3.25;;
32748;SDS011;19119;52.474;13.710;2023-02-28T07:00:50;8.23;;;3.65;;
32748;SDS011;19119;52.474;13.710;2023-02-28T07:03:16;7.80;;;4.03;;
32748;SDS011;19119;52.474;13.710;2023-02-28T07:05:43;8.93;;;3.38;;
32748;SDS011;19119;52.474;13.710;2023-02-28T07:08:09;5.90;;;3.63;;
32748;SDS011;19119;52.474;13.710;2023-02-28T07:10:38;8.32;;;4.45;;
32748;SDS011;19119;52.474;13.710;2023-02-28T07:13:06;6.97;;;4.05;;
32748;SDS011;19119;52.474;13.710;2023-02-28T07:15:33;8.90;;;3.95;;
32748;SDS011;19119;52.474;13.710;2023-02-28T07:17:59;7.90;;;4.30;;
32748;SDS011;19119;52.474;13.710;2023-02-28T07:20:25;9.02;;;4.05;;
32748;SDS011;19119;52.474;13.710;2023-02-28T07:22:51;8.65;;;4.55;;
32748;SDS011;19119;52.474;13.710;2023-02-28T07:25:23;11.00;;;4.75;;
32748;SDS011;19119;52.474;13.710;2023-02-28T07:27:50;9.60;;;5.25;;
32748;SDS011;19119;52.474;13.710;2023-02-28T07:30:17;8.02;;;5.13;;
32748;SDS011;19119;52.474;13.710;2023-02-28T07:32:42;12.43;;;5.32;;
32748;SDS011;19119;52.474;13.710;2023-02-28T07:35:08;12.48;;;5.45;;
32748;SDS011;19119;52.474;13.710;2023-02-28T07:37:34;9.43;;;4.32;;
32748;SDS011;19119;52.474;13.710;2023-02-28T07:40:06;7.25;;;4.53;;
32748;SDS011;19119;52.474;13.710;2023-02-28T07:42:37;8.45;;;4.78;;
32748;SDS011;19119;52.474;13.710;2023-02-28T07:45:04;10.80;;;6.05;;
32748;SDS011;19119;52.474;13.710;2023-02-28T07:47:30;11.60;;;5.35;;
32748;SDS011;19119;52.474;13.710;2023-02-28T07:49:56;8.20;;;4.25;;
32748;SDS011;19119;52.474;13.710;2023-02-28T07:52:23;10.40;;;4.75;;
32748;SDS011;19119;52.474;13.710;2023-02-28T07:54:49;10.05;;;4.95;;
32748;SDS011;19119;52.474;13.710;2023-02-28T07:57:15;11.95;;;5.03;;
32748;SDS011;19119;52.474;13.710;2023-02-28T07:59:41;12.13;;;4.20;;
32748;SDS011;19119;52.474;13.710;2023-02-28T08:02:09;10.88;;;5.10;;
32748;SDS011;19119;52.474;13.710;2023-02-28T08:04:38;14.07;;;5.20;;
32748;SDS011;19119;52.474;13.710;2023-02-28T08:07:03;12.13;;;4.97;;
32748;SDS011;19119;52.474;13.710;2023-02-28T08:09:29;14.70;;;6.07;;
32748;SDS011;19119;52.474;13.710;2023-02-28T08:11:55;13.13;;;5.68;;
32748;SDS011;19119;52.474;13.710;2023-02-28T08:14:21;16.83;;;5.75;;
32748;SDS011;19119;52.474;13.710;2023-02-28T08:16:46;12.18;;;5.55;;
32748;SDS011;19119;52.474;13.710;2023-02-28T08:19:12;12.45;;;5.30;;
32748;SDS011;19119;52.474;13.710;2023-02-28T08:21:37;11.00;;;5.25;;
32748;SDS011;19119;52.474;13.710;2023-02-28T08:24:03;10.13;;;3.83;;
32748;SDS011;19119;52.474;13.710;2023-02-28T08:26:29;14.15;;;5.05;;
32748;SDS011;19119;52.474;13.710;2023-02-28T08:28:54;15.88;;;5.15;;
32748;SDS011;19119;52.474;13.710;2023-02-28T08:31:20;9.05;;;4.78;;
32748;SDS011;19119;52.474;13.710;2023-02-28T08:33:46;9.27;;;4.30;;
32748;SDS011;19119;52.474;13.710;2023-02-28T08:36:13;8.32;;;4.88;;
32748;SDS011;19119;52.474;13.710;2023-02-28T08:38:39;12.25;;;4.22;;
32748;SDS011;19119;52.474;13.710;2023-02-28T08:41:07;8.38;;;4.15;;
32748;SDS011;19119;52.474;13.710;2023-02-28T08:43:34;10.65;;;4.10;;
32748;SDS011;19119;52.474;13.710;2023-02-28T08:46:00;11.00;;;4.05;;
32748;SDS011;19119;52.474;13.710;2023-02-28T08:48:26;8.73;;;4.47;;
32748;SDS011;19119;52.474;13.710;2023-02-28T08:50:57;10.45;;;4.25;;
32748;SDS011;19119;52.474;13.710;2023-02-28T08:53:30;7.55;;;3.67;;
32748;SDS011;19119;52.474;13.710;2023-02-28T08:55:57;8.35;;;4.40;;
32748;SDS011;19119;52.474;13.710;2023-02-28T08:58:24;8.80;;;3.67;;
32748;SDS011;19119;52.474;13.710;2023-02-28T09:00:50;5.45;;;3.20;;
32748;SDS011;19119;52.474;13.710;2023-02-28T09:03:16;7.03;;;3.33;;
32748;SDS011;19119;52.474;13.710;2023-02-28T09:05:51;7.75;;;3.17;;
32748;SDS011;19119;52.474;13.710;2023-02-28T09:08:17;9.48;;;4.13;;
32748;SDS011;19119;52.474;13.710;2023-02-28T09:10:43;5.75;;;3.20;;
32748;SDS011;19119;52.474;13.710;2023-02-28T09:13:08;10.75;;;4.32;;
32748;SDS011;19119;52.474;13.710;2023-02-28T09:15:34;6.68;;;3.25;;
32748;SDS011;19119;52.474;13.710;2023-02-28T09:18:02;6.10;;;3.92;;
32748;SDS011;19119;52.474;13.710;2023-02-28T09:20:28;5.47;;;3.08;;
32748;SDS011;19119;52.474;13.710;2023-02-28T09:22:54;6.43;;;3.10;;
32748;SDS011;19119;52.474;13.710;2023-02-28T09:25:19;6.05;;;2.92;;
32748;SDS011;19119;52.474;13.710;2023-02-28T09:27:45;8.73;;;3.50;;
32748;SDS011;19119;52.474;13.710;2023-02-28T09:30:11;8.65;;;3.28;;
32748;SDS011;19119;52.474;13.710;2023-02-28T09:32:38;7.32;;;2.60;;
32748;SDS011;19119;52.474;13.710;2023-02-28T09:35:03;5.47;;;2.13;;
32748;SDS011;19119;52.474;13.710;2023-02-28T09:37:30;7.95;;;2.55;;
32748;SDS011;19119;52.474;13.710;2023-02-28T09:39:56;3.72;;;2.63;;
32748;SDS011;19119;52.474;13.710;2023-02-28T09:42:23;8.10;;;2.50;;
32748;SDS011;19119;52.474;13.710;2023-02-28T09:44:55;7.10;;;2.92;;
32748;SDS011;19119;52.474;13.710;2023-02-28T09:47:30;5.55;;;2.33;;
32748;SDS011;19119;52.474;13.710;2023-02-28T09:52:51;3.20;;;1.65;;
32748;SDS011;19119;52.474;13.710;2023-02-28T09:55:20;3.72;;;1.15;;
32748;SDS011;19119;52.474;13.710;2023-02-28T09:57:59;2.63;;;1.65;;
32748;SDS011;19119;52.474;13.710;2023-02-28T10:00:36;2.78;;;1.40;;
32748;SDS011;19119;52.474;13.710;2023-02-28T10:03:14;2.33;;;1.20;;
32748;SDS011;19119;52.474;13.710;2023-02-28T10:08:41;2.75;;;1.10;;
32748;SDS011;19119;52.474;13.710;2023-02-28T10:11:17;4.65;;;1.40;;
32748;SDS011;19119;52.474;13.710;2023-02-28T10:16:29;2.90;;;1.30;;
32748;SDS011;19119;52.474;13.710;2023-02-28T10:19:02;3.20;;;1.42;;
32748;SDS011;19119;52.474;13.710;2023-02-28T10:21:54;2.42;;;1.45;;
32748;SDS011;19119;52.474;13.710;2023-02-28T10:24:34;2.95;;;1.52;;
32748;SDS011;19119;52.474;13.710;2023-02-28T10:27:17;2.97;;;1.08;;
32748;SDS011;19119;52.474;13.710;2023-02-28T10:29:47;1.83;;;1.05;;
32748;SDS011;19119;52.474;13.710;2023-02-28T10:32:15;2.75;;;1.50;;
32748;SDS011;19119;52.474;13.710;2023-02-28T10:34:43;3.03;;;1.30;;
32748;SDS011;19119;52.474;13.710;2023-02-28T10:37:10;7.07;;;1.65;;
32748;SDS011;19119;52.474;13.710;2023-02-28T10:39:44;3.03;;;1.80;;
32748;SDS011;19119;52.474;13.710;2023-02-28T10:42:25;2.70;;;1.42;;
32748;SDS011;19119;52.474;13.710;2023-02-28T10:45:11;3.25;;;1.80;;
32748;SDS011;19119;52.474;13.710;2023-02-28T10:50:34;3.53;;;1.67;;
32748;SDS011;19119;52.474;13.710;2023-02-28T10:56:03;2.67;;;1.60;;
32748;SDS011;19119;52.474;13.710;2023-02-28T11:01:18;5.55;;;1.50;;
32748;SDS011;19119;52.474;13.710;2023-02-28T11:03:59;3.40;;;1.33;;
32748;SDS011;19119;52.474;13.710;2023-02-28T11:06:26;5.00;;;2.05;;
32748;SDS011;19119;52.474;13.710;2023-02-28T11:08:56;3.55;;;1.60;;
32748;SDS011;19119;52.474;13.710;2023-02-28T11:11:31;3.83;;;1.30;;
32748;SDS011;19119;52.474;13.710;2023-02-28T11:14:15;3.42;;;1.67;;
32748;SDS011;19119;52.474;13.710;2023-02-28T11:17:11;3.58;;;1.65;;
32748;SDS011;19119;52.474;13.710;2023-02-28T11:19:47;3.47;;;1.48;;
32748;SDS011;19119;52.474;13.710;2023-02-28T11:22:23;2.63;;;1.70;;
32748;SDS011;19119;52.474;13.710;2023-02-28T11:24:54;3.03;;;1.45;;
32748;SDS011;19119;52.474;13.710;2023-02-28T11:29:55;3.13;;;1.80;;
32748;SDS011;19119;52.474;13.710;2023-02-28T11:32:22;4.28;;;1.42;;
32748;SDS011;19119;52.474;13.710;2023-02-28T11:37:36;2.70;;;1.55;;
32748;SDS011;19119;52.474;13.710;2023-02-28T11:40:05;3.00;;;1.52;;
32748;SDS011;19119;52.474;13.710;2023-02-28T11:50:35;3.60;;;1.70;;
32748;SDS011;19119;52.474;13.710;2023-02-28T11:58:57;4.50;;;1.65;;
32748;SDS011;19119;52.474;13.710;2023-02-28T12:21:43;3.85;;;1.73;;
32748;SDS011;19119;52.474;13.710;2023-02-28T12:27:13;2.08;;;1.40;;
32748;SDS011;19119;52.474;13.710;2023-02-28T12:29:47;5.13;;;1.77;;
32748;SDS011;19119;52.474;13.710;2023-02-28T12:32:33;3.90;;;1.70;;
32748;SDS011;19119;52.474;13.710;2023-02-28T12:35:06;4.25;;;1.70;;
32748;SDS011;19119;52.474;13.710;2023-02-28T12:37:47;3.55;;;1.58;;
32748;SDS011;19119;52.474;13.710;2023-02-28T12:40:23;4.28;;;1.55;;
32748;SDS011;19119;52.474;13.710;2023-02-28T12:42:55;5.13;;;1.80;;
32748;SDS011;19119;52.474;13.710;2023-02-28T12:45:36;3.38;;;1.83;;
32748;SDS011;19119;52.474;13.710;2023-02-28T12:48:05;3.30;;;1.98;;
32748;SDS011;19119;52.474;13.710;2023-02-28T12:50:36;6.32;;;1.90;;
32748;SDS011;19119;52.474;13.710;2023-02-28T12:55:35;2.97;;;1.65;;
32748;SDS011;19119;52.474;13.710;2023-02-28T12:58:20;3.13;;;1.60;;
32748;SDS011;19119;52.474;13.710;2023-02-28T13:03:59;4.68;;;1.90;;
32748;SDS011;19119;52.474;13.710;2023-02-28T13:12:21;4.28;;;2.25;;
32748;SDS011;19119;52.474;13.710;2023-02-28T13:14:48;4.68;;;2.10;;
32748;SDS011;19119;52.474;13.710;2023-02-28T13:17:21;3.45;;;1.85;;
32748;SDS011;19119;52.474;13.710;2023-02-28T13:24:55;4.23;;;1.90;;
32748;SDS011;19119;52.474;13.710;2023-02-28T13:27:23;3.20;;;2.00;;
32748;SDS011;19119;52.474;13.710;2023-02-28T13:29:49;5.03;;;2.03;;
32748;SDS011;19119;52.474;13.710;2023-02-28T13:32:20;3.22;;;1.63;;
32748;SDS011;19119;52.474;13.710;2023-02-28T13:39:58;4.05;;;2.38;;
32748;SDS011;19119;52.474;13.710;2023-02-28T13:42:48;3.95;;;1.67;;
32748;SDS011;19119;52.474;13.710;2023-02-28T13:45:28;4.43;;;1.73;;
32748;SDS011;19119;52.474;13.710;2023-02-28T13:48:01;3.53;;;1.80;;
32748;SDS011;19119;52.474;13.710;2023-02-28T13:50:31;5.25;;;1.75;;
32748;SDS011;19119;52.474;13.710;2023-02-28T13:58:27;4.60;;;1.83;;
32748;SDS011;19119;52.474;13.710;2023-02-28T14:03:46;8.00;;;2.20;;
32748;SDS011;19119;52.474;13.710;2023-02-28T14:17:01;4.07;;;1.98;;
32748;SDS011;19119;52.474;13.710;2023-02-28T14:19:30;5.57;;;2.20;;
32748;SDS011;19119;52.474;13.710;2023-02-28T14:35:00;5.82;;;1.60;;
32748;SDS011;19119;52.474;13.710;2023-02-28T14:37:28;3.53;;;2.00;;
32748;SDS011;19119;52.474;13.710;2023-02-28T14:39:57;3.40;;;1.70;;
32748;SDS011;19119;52.474;13.710;2023-02-28T14:42:35;3.75;;;2.08;;
32748;SDS011;19119;52.474;13.710;2023-02-28T14:45:03;3.05;;;1.88;;
32748;SDS011;19119;52.474;13.710;2023-02-28T14:47:32;3.50;;;1.60;;
32748;SDS011;19119;52.474;13.710;2023-02-28T14:50:01;3.88;;;1.70;;
32748;SDS011;19119;52.474;13.710;2023-02-28T14:52:29;5.05;;;2.25;;
32748;SDS011;19119;52.474;13.710;2023-02-28T14:54:58;4.88;;;1.80;;
32748;SDS011;19119;52.474;13.710;2023-02-28T14:57:32;6.20;;;1.85;;
32748;SDS011;19119;52.474;13.710;2023-02-28T15:02:40;3.85;;;1.55;;
32748;SDS011;19119;52.474;13.710;2023-02-28T15:05:16;3.80;;;1.88;;
32748;SDS011;19119;52.474;13.710;2023-02-28T15:08:05;4.03;;;2.05;;
32748;SDS011;19119;52.474;13.710;2023-02-28T15:10:40;5.80;;;2.17;;
32748;SDS011;19119;52.474;13.710;2023-02-28T15:13:19;3.25;;;1.85;;
32748;SDS011;19119;52.474;13.710;2023-02-28T15:18:30;4.30;;;2.20;;
32748;SDS011;19119;52.474;13.710;2023-02-28T15:21:06;5.85;;;2.47;;
32748;SDS011;19119;52.474;13.710;2023-02-28T15:23:36;6.00;;;2.30;;
32748;SDS011;19119;52.474;13.710;2023-02-28T15:26:05;4.40;;;1.70;;
32748;SDS011;19119;52.474;13.710;2023-02-28T15:28:31;5.72;;;1.90;;
32748;SDS011;19119;52.474;13.710;2023-02-28T15:31:02;5.43;;;2.25;;
32748;SDS011;19119;52.474;13.710;2023-02-28T15:33:47;4.70;;;2.63;;
32748;SDS011;19119;52.474;13.710;2023-02-28T15:36:31;3.63;;;1.95;;
32748;SDS011;19119;52.474;13.710;2023-02-28T15:39:02;5.35;;;1.88;;
32748;SDS011;19119;52.474;13.710;2023-02-28T15:41:35;6.07;;;2.92;;
32748;SDS011;19119;52.474;13.710;2023-02-28T15:49:29;5.57;;;2.40;;
32748;SDS011;19119;52.474;13.710;2023-02-28T15:52:10;5.50;;;2.40;;
32748;SDS011;19119;52.474;13.710;2023-02-28T15:54:39;3.67;;;2.45;;
32748;SDS011;19119;52.474;13.710;2023-02-28T15:57:10;3.90;;;2.20;;
32748;SDS011;19119;52.474;13.710;2023-02-28T16:02:17;5.47;;;2.10;;
32748;SDS011;19119;52.474;13.710;2023-02-28T16:04:55;5.88;;;2.70;;
32748;SDS011;19119;52.474;13.710;2023-02-28T16:07:42;4.95;;;2.13;;
32748;SDS011;19119;52.474;13.710;2023-02-28T16:10:09;6.90;;;2.80;;
32748;SDS011;19119;52.474;13.710;2023-02-28T16:12:39;4.38;;;2.05;;
32748;SDS011;19119;52.474;13.710;2023-02-28T16:15:14;4.85;;;2.55;;
32748;SDS011;19119;52.474;13.710;2023-02-28T16:17:44;6.25;;;2.95;;
32748;SDS011;19119;52.474;13.710;2023-02-28T16:20:12;5.30;;;2.17;;
32748;SDS011;19119;52.474;13.710;2023-02-28T16:22:41;5.43;;;2.33;;
32748;SDS011;19119;52.474;13.710;2023-02-28T16:25:10;3.55;;;1.92;;
32748;SDS011;19119;52.474;13.710;2023-02-28T16:27:37;4.43;;;1.90;;
32748;SDS011;19119;52.474;13.710;2023-02-28T16:30:03;6.07;;;2.55;;
32748;SDS011;19119;52.474;13.710;2023-02-28T16:32:34;7.13;;;2.22;;
32748;SDS011;19119;52.474;13.710;2023-02-28T16:35:02;4.57;;;2.20;;
32748;SDS011;19119;52.474;13.710;2023-02-28T16:37:28;7.35;;;2.38;;
32748;SDS011;19119;52.474;13.710;2023-02-28T16:39:54;5.85;;;2.97;;
32748;SDS011;19119;52.474;13.710;2023-02-28T16:42:23;7.30;;;2.95;;
32748;SDS011;19119;52.474;13.710;2023-02-28T16:44:53;7.07;;;3.72;;
32748;SDS011;19119;52.474;13.710;2023-02-28T16:47:20;13.23;;;4.03;;
32748;SDS011;19119;52.474;13.710;2023-02-28T16:49:46;7.95;;;3.40;;
32748;SDS011;19119;52.474;13.710;2023-02-28T16:52:12;7.93;;;4.32;;
32748;SDS011;19119;52.474;13.710;2023-02-28T16:54:39;9.98;;;4.05;;
32748;SDS011;19119;52.474;13.710;2023-02-28T16:57:06;9.02;;;3.63;;
32748;SDS011;19119;52.474;13.710;2023-02-28T16:59:41;8.00;;;3.80;;
32748;SDS011;19119;52.474;13.710;2023-02-28T17:02:10;6.90;;;3.22;;
32748;SDS011;19119;52.474;13.710;2023-02-28T17:04:39;6.97;;;2.65;;
32748;SDS011;19119;52.474;13.710;2023-02-28T17:07:04;7.43;;;3.05;;
32748;SDS011;19119;52.474;13.710;2023-02-28T17:09:32;6.75;;;2.75;;
32748;SDS011;19119;52.474;13.710;2023-02-28T17:11:58;7.22;;;2.60;;
32748;SDS011;19119;52.474;13.710;2023-02-28T17:14:24;6.35;;;2.63;;
32748;SDS011;19119;52.474;13.710;2023-02-28T17:16:49;5.53;;;3.00;;
32748;SDS011;19119;52.474;13.710;2023-02-28T17:19:15;7.10;;;3.30;;
32748;SDS011;19119;52.474;13.710;2023-02-28T17:21:42;5.53;;;2.97;;
32748;SDS011;19119;52.474;13.710;2023-02-28T17:24:11;6.78;;;2.33;;